sensor_id;sensor_type;location;lat;lon;timestamp;temperature;humidity
37410;DHT22;23275;48.914;12.566;2023-05-20T00:00:55;12.80;99.90
37410;DHT22;23275;48.914;12.566;2023-05-20T00:03:21;12.80;99.90
37410;DHT22;23275;48.914;12.566;2023-05-20T00:05:47;12.80;99.90
37410;DHT22;23275;48.914;12.566;2023-05-20T00:08:13;12.80;99.90
37410;DHT22;23275;48.914;12.566;2023-05-20T00:10:39;12.80;99.90
37410;DHT22;23275;48.914;12.566;2023-05-20T00:13:05;12.80;99.90
37410;DHT22;23275;48.914;12.566;2023-05-20T00:15:32;12.70;99.90
37410;DHT22;23275;48.914;12.566;2023-05-20T00:17:59;12.70;99.90
37410;DHT22;23275;48.914;12.566;2023-05-20T00:20:25;12.70;99.90
37410;DHT22;23275;48.914;12.566;2023-05-20T00:22:50;12.70;99.90
37410;DHT22;23275;48.914;12.566;2023-05-20T00:25:16;12.70;99.90
37410;DHT22;23275;48.914;12.566;2023-05-20T00:27:41;12.70;99.90
37410;DHT22;23275;48.914;12.566;2023-05-20T00:30:08;12.70;99.90
37410;DHT22;23275;48.914;12.566;2023-05-20T00:32:34;12.70;99.90
37410;DHT22;23275;48.914;12.566;2023-05-20T00:35:02;12.70;99.90
37410;DHT22;23275;48.914;12.566;2023-05-20T00:37:28;12.60;99.90
37410;DHT22;23275;48.914;12.566;2023-05-20T00:39:54;12.70;99.90
37410;DHT22;23275;48.914;12.566;2023-05-20T00:42:23;12.70;99.90
37410;DHT22;23275;48.914;12.566;2023-05-20T00:44:49;12.60;99.90
37410;DHT22;23275;48.914;12.566;2023-05-20T00:47:16;12.60;99.90
37410;DHT22;23275;48.914;12.566;2023-05-20T00:49:47;12.60;99.90
37410;DHT22;23275;48.914;12.566;2023-05-20T00:52:13;12.60;99.90
37410;DHT22;23275;48.914;12.566;2023-05-20T00:54:40;12.60;99.90
37410;DHT22;23275;48.914;12.566;2023-05-20T00:57:06;12.60;99.90
37410;DHT22;23275;48.914;12.566;2023-05-20T00:59:35;12.50;99.90
37410;DHT22;23275;48.914;12.566;2023-05-20T01:02:01;12.50;99.90
37410;DHT22;23275;48.914;12.566;2023-05-20T01:04:27;12.50;99.90
37410;DHT22;23275;48.914;12.566;2023-05-20T01:06:53;12.50;99.90
37410;DHT22;23275;48.914;12.566;2023-05-20T01:09:20;12.50;99.90
37410;DHT22;23275;48.914;12.566;2023-05-20T01:11:59;12.40;99.90
37410;DHT22;23275;48.914;12.566;2023-05-20T01:14:30;12.50;99.90
37410;DHT22;23275;48.914;12.566;2023-05-20T01:16:58;12.40;99.90
37410;DHT22;23275;48.914;12.566;2023-05-20T01:19:37;12.40;99.90
37410;DHT22;23275;48.914;12.566;2023-05-20T01:22:05;12.40;99.90
37410;DHT22;23275;48.914;12.566;2023-05-20T01:24:31;12.40;99.90
37410;DHT22;23275;48.914;12.566;2023-05-20T01:26:57;12.40;99.90
37410;DHT22;23275;48.914;12.566;2023-05-20T01:29:23;12.40;99.90
37410;DHT22;23275;48.914;12.566;2023-05-20T01:31:50;12.40;99.90
37410;DHT22;23275;48.914;12.566;2023-05-20T01:34:17;12.30;99.90
37410;DHT22;23275;48.914;12.566;2023-05-20T01:36:44;12.30;99.90
37410;DHT22;23275;48.914;12.566;2023-05-20T01:39:12;12.30;99.90
37410;DHT22;23275;48.914;12.566;2023-05-20T01:41:38;12.30;99.90
37410;DHT22;23275;48.914;12.566;2023-05-20T01:44:04;12.30;99.90
37410;DHT22;23275;48.914;12.566;2023-05-20T01:46:33;12.30;99.90
37410;DHT22;23275;48.914;12.566;2023-05-20T01:48:59;12.30;99.90
37410;DHT22;23275;48.914;12.566;2023-05-20T01:51:25;12.30;99.90
37410;DHT22;23275;48.914;12.566;2023-05-20T01:53:50;12.30;99.90
37410;DHT22;23275;48.914;12.566;2023-05-20T01:56:16;12.20;99.90
37410;DHT22;23275;48.914;12.566;2023-05-20T01:58:41;12.20;99.90
37410;DHT22;23275;48.914;12.566;2023-05-20T02:01:07;12.20;99.90
37410;DHT22;23275;48.914;12.566;2023-05-20T02:03:33;12.20;99.90
37410;DHT22;23275;48.914;12.566;2023-05-20T02:05:58;12.10;99.90
37410;DHT22;23275;48.914;12.566;2023-05-20T02:08:24;12.10;99.90
37410;DHT22;23275;48.914;12.566;2023-05-20T02:10:49;12.10;99.90
37410;DHT22;23275;48.914;12.566;2023-05-20T02:13:15;12.00;99.90
37410;DHT22;23275;48.914;12.566;2023-05-20T02:15:41;12.00;99.90
37410;DHT22;23275;48.914;12.566;2023-05-20T02:18:06;12.00;99.90
37410;DHT22;23275;48.914;12.566;2023-05-20T02:20:34;12.00;99.90
37410;DHT22;23275;48.914;12.566;2023-05-20T02:23:00;11.90;99.90
37410;DHT22;23275;48.914;12.566;2023-05-20T02:25:27;11.90;99.90
37410;DHT22;23275;48.914;12.566;2023-05-20T02:27:52;11.90;99.90
37410;DHT22;23275;48.914;12.566;2023-05-20T02:30:18;11.90;99.90
37410;DHT22;23275;48.914;12.566;2023-05-20T02:32:44;11.90;99.90
37410;DHT22;23275;48.914;12.566;2023-05-20T02:35:09;11.90;99.90
37410;DHT22;23275;48.914;12.566;2023-05-20T02:37:35;11.90;99.90
37410;DHT22;23275;48.914;12.566;2023-05-20T02:40:00;11.90;99.90
37410;DHT22;23275;48.914;12.566;2023-05-20T02:42:26;11.80;99.90
37410;DHT22;23275;48.914;12.566;2023-05-20T02:44:51;11.80;99.90
37410;DHT22;23275;48.914;12.566;2023-05-20T02:47:20;11.80;99.90
37410;DHT22;23275;48.914;12.566;2023-05-20T02:49:46;11.70;99.90
37410;DHT22;23275;48.914;12.566;2023-05-20T02:52:12;11.70;99.90
37410;DHT22;23275;48.914;12.566;2023-05-20T02:54:37;11.70;99.90
37410;DHT22;23275;48.914;12.566;2023-05-20T02:57:03;11.70;99.90
37410;DHT22;23275;48.914;12.566;2023-05-20T02:59:28;11.70;99.90
37410;DHT22;23275;48.914;12.566;2023-05-20T03:01:54;11.70;99.90
37410;DHT22;23275;48.914;12.566;2023-05-20T03:04:19;11.70;99.90
37410;DHT22;23275;48.914;12.566;2023-05-20T03:06:45;11.70;99.90
37410;DHT22;23275;48.914;12.566;2023-05-20T03:09:12;11.70;99.90
37410;DHT22;23275;48.914;12.566;2023-05-20T03:11:38;11.70;99.90
37410;DHT22;23275;48.914;12.566;2023-05-20T03:14:04;11.70;99.90
37410;DHT22;23275;48.914;12.566;2023-05-20T03:16:29;11.70;99.90
37410;DHT22;23275;48.914;12.566;2023-05-20T03:18:55;11.70;99.90
37410;DHT22;23275;48.914;12.566;2023-05-20T03:21:20;11.70;99.90
37410;DHT22;23275;48.914;12.566;2023-05-20T03:23:48;11.70;99.90
37410;DHT22;23275;48.914;12.566;2023-05-20T03:26:13;11.70;99.90
37410;DHT22;23275;48.914;12.566;2023-05-20T03:28:40;11.70;99.90
37410;DHT22;23275;48.914;12.566;2023-05-20T03:31:06;11.70;99.90
37410;DHT22;23275;48.914;12.566;2023-05-20T03:33:33;11.70;99.90
37410;DHT22;23275;48.914;12.566;2023-05-20T03:35:59;11.70;99.90
37410;DHT22;23275;48.914;12.566;2023-05-20T03:38:26;11.70;99.90
37410;DHT22;23275;48.914;12.566;2023-05-20T03:40:51;11.70;99.90
37410;DHT22;23275;48.914;12.566;2023-05-20T03:43:17;11.70;99.90
37410;DHT22;23275;48.914;12.566;2023-05-20T03:45:42;11.70;99.90
37410;DHT22;23275;48.914;12.566;2023-05-20T03:48:08;11.70;99.90
37410;DHT22;23275;48.914;12.566;2023-05-20T03:50:33;11.80;99.90
37410;DHT22;23275;48.914;12.566;2023-05-20T03:52:59;11.70;99.90
37410;DHT22;23275;48.914;12.566;2023-05-20T03:55:25;11.80;99.90
37410;DHT22;23275;48.914;12.566;2023-05-20T03:57:52;11.80;99.90
37410;DHT22;23275;48.914;12.566;2023-05-20T04:00:17;11.80;99.90
37410;DHT22;23275;48.914;12.566;2023-05-20T04:02:43;11.90;99.90
37410;DHT22;23275;48.914;12.566;2023-05-20T04:05:09;11.90;99.90
37410;DHT22;23275;48.914;12.566;2023-05-20T04:07:35;11.90;99.90
37410;DHT22;23275;48.914;12.566;2023-05-20T04:10:01;12.00;99.90
37410;DHT22;23275;48.914;12.566;2023-05-20T04:12:26;12.00;99.90
37410;DHT22;23275;48.914;12.566;2023-05-20T04:14:59;12.10;99.90
37410;DHT22;23275;48.914;12.566;2023-05-20T04:17:28;12.10;99.90
37410;DHT22;23275;48.914;12.566;2023-05-20T04:19:55;12.20;99.90
37410;DHT22;23275;48.914;12.566;2023-05-20T04:22:21;12.30;99.90
37410;DHT22;23275;48.914;12.566;2023-05-20T04:24:48;12.40;99.90
37410;DHT22;23275;48.914;12.566;2023-05-20T04:27:14;12.40;99.90
37410;DHT22;23275;48.914;12.566;2023-05-20T04:29:40;12.50;99.90
37410;DHT22;23275;48.914;12.566;2023-05-20T04:32:12;12.60;99.90
37410;DHT22;23275;48.914;12.566;2023-05-20T04:34:38;12.60;99.90
37410;DHT22;23275;48.914;12.566;2023-05-20T04:37:03;12.80;99.90
37410;DHT22;23275;48.914;12.566;2023-05-20T04:39:32;12.90;99.90
37410;DHT22;23275;48.914;12.566;2023-05-20T04:41:57;13.00;99.90
37410;DHT22;23275;48.914;12.566;2023-05-20T04:44:24;13.10;99.90
37410;DHT22;23275;48.914;12.566;2023-05-20T04:46:51;13.20;99.90
37410;DHT22;23275;48.914;12.566;2023-05-20T04:49:16;13.30;99.90
37410;DHT22;23275;48.914;12.566;2023-05-20T04:51:42;13.50;99.90
37410;DHT22;23275;48.914;12.566;2023-05-20T04:54:08;13.60;99.90
37410;DHT22;23275;48.914;12.566;2023-05-20T04:56:33;13.70;99.90
37410;DHT22;23275;48.914;12.566;2023-05-20T04:59:00;13.90;99.90
37410;DHT22;23275;48.914;12.566;2023-05-20T05:01:25;14.00;99.90
37410;DHT22;23275;48.914;12.566;2023-05-20T05:03:51;14.20;99.90
37410;DHT22;23275;48.914;12.566;2023-05-20T05:06:16;14.30;99.90
37410;DHT22;23275;48.914;12.566;2023-05-20T05:08:42;14.50;99.90
37410;DHT22;23275;48.914;12.566;2023-05-20T05:11:07;14.80;99.90
37410;DHT22;23275;48.914;12.566;2023-05-20T05:13:33;15.00;99.90
37410;DHT22;23275;48.914;12.566;2023-05-20T05:15:59;15.20;99.90
37410;DHT22;23275;48.914;12.566;2023-05-20T05:18:25;15.40;99.90
37410;DHT22;23275;48.914;12.566;2023-05-20T05:21:01;15.50;99.90
37410;DHT22;23275;48.914;12.566;2023-05-20T05:23:27;15.60;99.90
37410;DHT22;23275;48.914;12.566;2023-05-20T05:25:53;15.70;99.90
37410;DHT22;23275;48.914;12.566;2023-05-20T05:28:19;15.90;99.90
37410;DHT22;23275;48.914;12.566;2023-05-20T05:30:44;16.10;99.90
37410;DHT22;23275;48.914;12.566;2023-05-20T05:33:10;16.20;99.90
37410;DHT22;23275;48.914;12.566;2023-05-20T05:35:35;16.40;99.90
37410;DHT22;23275;48.914;12.566;2023-05-20T05:38:01;16.50;99.90
37410;DHT22;23275;48.914;12.566;2023-05-20T05:40:27;16.70;99.90
37410;DHT22;23275;48.914;12.566;2023-05-20T05:42:53;16.90;99.90
37410;DHT22;23275;48.914;12.566;2023-05-20T05:45:18;17.00;99.90
37410;DHT22;23275;48.914;12.566;2023-05-20T05:47:44;17.10;99.90
37410;DHT22;23275;48.914;12.566;2023-05-20T05:50:10;17.20;99.90
37410;DHT22;23275;48.914;12.566;2023-05-20T05:52:35;17.30;99.90
37410;DHT22;23275;48.914;12.566;2023-05-20T05:55:02;17.40;99.90
37410;DHT22;23275;48.914;12.566;2023-05-20T05:57:27;17.50;99.90
37410;DHT22;23275;48.914;12.566;2023-05-20T05:59:53;17.60;99.90
37410;DHT22;23275;48.914;12.566;2023-05-20T06:02:18;17.80;99.90
37410;DHT22;23275;48.914;12.566;2023-05-20T06:04:44;17.90;99.90
37410;DHT22;23275;48.914;12.566;2023-05-20T06:07:10;18.00;99.90
37410;DHT22;23275;48.914;12.566;2023-05-20T06:09:37;18.10;99.90
37410;DHT22;23275;48.914;12.566;2023-05-20T06:12:03;18.10;99.90
37410;DHT22;23275;48.914;12.566;2023-05-20T06:14:29;18.20;99.90
37410;DHT22;23275;48.914;12.566;2023-05-20T06:16:54;18.30;99.90
37410;DHT22;23275;48.914;12.566;2023-05-20T06:19:20;18.40;99.90
37410;DHT22;23275;48.914;12.566;2023-05-20T06:21:46;18.60;99.90
37410;DHT22;23275;48.914;12.566;2023-05-20T06:24:11;18.80;99.90
37410;DHT22;23275;48.914;12.566;2023-05-20T06:26:37;19.00;99.90
37410;DHT22;23275;48.914;12.566;2023-05-20T06:29:02;19.20;99.90
37410;DHT22;23275;48.914;12.566;2023-05-20T06:31:28;19.30;99.90
37410;DHT22;23275;48.914;12.566;2023-05-20T06:33:54;19.30;99.90
37410;DHT22;23275;48.914;12.566;2023-05-20T06:36:20;19.50;99.90
37410;DHT22;23275;48.914;12.566;2023-05-20T06:38:46;19.50;99.90
37410;DHT22;23275;48.914;12.566;2023-05-20T06:41:11;19.70;99.90
37410;DHT22;23275;48.914;12.566;2023-05-20T06:43:37;19.80;99.90
37410;DHT22;23275;48.914;12.566;2023-05-20T06:46:04;19.90;99.90
37410;DHT22;23275;48.914;12.566;2023-05-20T06:48:30;20.10;99.90
37410;DHT22;23275;48.914;12.566;2023-05-20T06:50:56;20.10;99.90
37410;DHT22;23275;48.914;12.566;2023-05-20T06:53:21;20.20;99.90
37410;DHT22;23275;48.914;12.566;2023-05-20T06:55:47;20.10;99.90
37410;DHT22;23275;48.914;12.566;2023-05-20T06:58:12;20.10;99.90
37410;DHT22;23275;48.914;12.566;2023-05-20T07:00:38;20.30;99.90
37410;DHT22;23275;48.914;12.566;2023-05-20T07:03:04;20.60;99.90
37410;DHT22;23275;48.914;12.566;2023-05-20T07:05:29;20.60;99.90
37410;DHT22;23275;48.914;12.566;2023-05-20T07:07:56;20.50;99.90
37410;DHT22;23275;48.914;12.566;2023-05-20T07:10:21;20.70;99.90
37410;DHT22;23275;48.914;12.566;2023-05-20T07:12:47;20.80;99.90
37410;DHT22;23275;48.914;12.566;2023-05-20T07:15:13;20.90;99.90
37410;DHT22;23275;48.914;12.566;2023-05-20T07:17:38;21.20;99.90
37410;DHT22;23275;48.914;12.566;2023-05-20T07:20:05;21.30;99.90
37410;DHT22;23275;48.914;12.566;2023-05-20T07:22:30;21.30;99.90
37410;DHT22;23275;48.914;12.566;2023-05-20T07:24:56;21.10;99.90
37410;DHT22;23275;48.914;12.566;2023-05-20T07:27:22;21.00;99.90
37410;DHT22;23275;48.914;12.566;2023-05-20T07:29:47;21.00;99.90
37410;DHT22;23275;48.914;12.566;2023-05-20T07:32:13;21.10;99.90
37410;DHT22;23275;48.914;12.566;2023-05-20T07:34:39;21.20;99.90
37410;DHT22;23275;48.914;12.566;2023-05-20T07:37:05;21.60;99.90
37410;DHT22;23275;48.914;12.566;2023-05-20T07:39:31;21.90;99.90
37410;DHT22;23275;48.914;12.566;2023-05-20T07:41:56;21.80;99.90
37410;DHT22;23275;48.914;12.566;2023-05-20T07:44:22;22.00;99.90
37410;DHT22;23275;48.914;12.566;2023-05-20T07:46:48;22.20;99.90
37410;DHT22;23275;48.914;12.566;2023-05-20T07:49:13;22.30;99.90
37410;DHT22;23275;48.914;12.566;2023-05-20T07:51:39;22.30;99.90
37410;DHT22;23275;48.914;12.566;2023-05-20T07:54:04;22.50;99.90
37410;DHT22;23275;48.914;12.566;2023-05-20T07:56:30;22.60;99.90
37410;DHT22;23275;48.914;12.566;2023-05-20T07:58:58;22.50;99.90
37410;DHT22;23275;48.914;12.566;2023-05-20T08:01:24;22.40;99.90
37410;DHT22;23275;48.914;12.566;2023-05-20T08:03:50;22.40;99.90
37410;DHT22;23275;48.914;12.566;2023-05-20T08:06:16;22.40;99.90
37410;DHT22;23275;48.914;12.566;2023-05-20T08:08:42;22.80;99.90
37410;DHT22;23275;48.914;12.566;2023-05-20T08:11:08;22.70;99.90
37410;DHT22;23275;48.914;12.566;2023-05-20T08:13:34;22.60;99.90
37410;DHT22;23275;48.914;12.566;2023-05-20T08:16:00;22.80;99.90
37410;DHT22;23275;48.914;12.566;2023-05-20T08:18:28;22.90;99.90
37410;DHT22;23275;48.914;12.566;2023-05-20T08:20:54;23.10;99.90
37410;DHT22;23275;48.914;12.566;2023-05-20T08:23:19;23.00;99.90
37410;DHT22;23275;48.914;12.566;2023-05-20T08:25:45;22.90;99.90
37410;DHT22;23275;48.914;12.566;2023-05-20T08:28:13;23.00;99.90
37410;DHT22;23275;48.914;12.566;2023-05-20T08:30:39;23.30;99.90
37410;DHT22;23275;48.914;12.566;2023-05-20T08:33:05;23.60;99.90
37410;DHT22;23275;48.914;12.566;2023-05-20T08:35:31;23.50;99.90
37410;DHT22;23275;48.914;12.566;2023-05-20T08:37:57;23.50;99.90
37410;DHT22;23275;48.914;12.566;2023-05-20T08:40:23;23.00;99.90
37410;DHT22;23275;48.914;12.566;2023-05-20T08:42:50;23.10;99.90
37410;DHT22;23275;48.914;12.566;2023-05-20T08:45:18;23.40;99.90
37410;DHT22;23275;48.914;12.566;2023-05-20T08:47:45;23.40;99.90
37410;DHT22;23275;48.914;12.566;2023-05-20T08:50:12;23.40;99.90
37410;DHT22;23275;48.914;12.566;2023-05-20T08:52:43;23.50;99.90
37410;DHT22;23275;48.914;12.566;2023-05-20T08:55:17;23.70;99.90
37410;DHT22;23275;48.914;12.566;2023-05-20T08:57:48;24.00;99.90
37410;DHT22;23275;48.914;12.566;2023-05-20T09:00:14;24.10;99.90
37410;DHT22;23275;48.914;12.566;2023-05-20T09:02:42;23.70;99.90
37410;DHT22;23275;48.914;12.566;2023-05-20T09:05:09;23.50;99.90
37410;DHT22;23275;48.914;12.566;2023-05-20T09:07:35;23.10;99.90
37410;DHT22;23275;48.914;12.566;2023-05-20T09:10:01;23.00;99.90
37410;DHT22;23275;48.914;12.566;2023-05-20T09:12:26;23.50;99.90
37410;DHT22;23275;48.914;12.566;2023-05-20T09:14:52;24.10;99.90
37410;DHT22;23275;48.914;12.566;2023-05-20T09:17:18;24.70;99.90
37410;DHT22;23275;48.914;12.566;2023-05-20T09:19:48;25.20;99.90
37410;DHT22;23275;48.914;12.566;2023-05-20T09:22:14;25.40;99.90
37410;DHT22;23275;48.914;12.566;2023-05-20T09:24:40;25.70;95.50
37410;DHT22;23275;48.914;12.566;2023-05-20T09:27:06;26.10;98.00
37410;DHT22;23275;48.914;12.566;2023-05-20T09:29:32;26.30;98.20
37410;DHT22;23275;48.914;12.566;2023-05-20T09:32:01;26.60;96.50
37410;DHT22;23275;48.914;12.566;2023-05-20T09:34:28;27.30;95.00
37410;DHT22;23275;48.914;12.566;2023-05-20T09:36:54;27.90;95.50
37410;DHT22;23275;48.914;12.566;2023-05-20T09:39:24;28.70;92.20
37410;DHT22;23275;48.914;12.566;2023-05-20T09:41:54;28.70;86.60
37410;DHT22;23275;48.914;12.566;2023-05-20T09:44:21;27.80;89.60
37410;DHT22;23275;48.914;12.566;2023-05-20T09:46:48;27.20;89.20
37410;DHT22;23275;48.914;12.566;2023-05-20T09:49:14;27.20;93.10
37410;DHT22;23275;48.914;12.566;2023-05-20T09:51:41;27.20;93.50
37410;DHT22;23275;48.914;12.566;2023-05-20T09:54:08;27.30;91.20
37410;DHT22;23275;48.914;12.566;2023-05-20T09:56:35;26.90;90.30
37410;DHT22;23275;48.914;12.566;2023-05-20T09:59:01;26.50;93.10
37410;DHT22;23275;48.914;12.566;2023-05-20T10:01:29;26.20;93.60
37410;DHT22;23275;48.914;12.566;2023-05-20T10:03:55;25.90;91.00
37410;DHT22;23275;48.914;12.566;2023-05-20T10:09:41;27.00;90.30
37410;DHT22;23275;48.914;12.566;2023-05-20T10:19:47;27.40;91.80
37410;DHT22;23275;48.914;12.566;2023-05-20T10:22:24;28.40;91.90
37410;DHT22;23275;48.914;12.566;2023-05-20T10:24:57;29.30;85.30
37410;DHT22;23275;48.914;12.566;2023-05-20T10:27:23;29.80;77.80
37410;DHT22;23275;48.914;12.566;2023-05-20T10:29:50;30.40;80.80
37410;DHT22;23275;48.914;12.566;2023-05-20T10:32:31;30.90;77.70
37410;DHT22;23275;48.914;12.566;2023-05-20T10:35:03;30.80;77.70
37410;DHT22;23275;48.914;12.566;2023-05-20T10:37:32;30.70;75.50
37410;DHT22;23275;48.914;12.566;2023-05-20T10:40:14;31.00;73.50
37410;DHT22;23275;48.914;12.566;2023-05-20T10:42:41;31.30;76.40
37410;DHT22;23275;48.914;12.566;2023-05-20T10:45:07;31.60;73.10
37410;DHT22;23275;48.914;12.566;2023-05-20T10:47:34;30.60;69.50
37410;DHT22;23275;48.914;12.566;2023-05-20T10:50:00;29.60;74.40
37410;DHT22;23275;48.914;12.566;2023-05-20T10:52:26;29.40;75.10
37410;DHT22;23275;48.914;12.566;2023-05-20T10:54:56;29.40;77.60
37410;DHT22;23275;48.914;12.566;2023-05-20T10:57:22;29.10;75.10
37410;DHT22;23275;48.914;12.566;2023-05-20T10:59:49;29.00;75.70
37410;DHT22;23275;48.914;12.566;2023-05-20T11:02:16;28.90;73.80
37410;DHT22;23275;48.914;12.566;2023-05-20T11:04:45;29.80;75.50
37410;DHT22;23275;48.914;12.566;2023-05-20T11:07:11;30.50;67.40
37410;DHT22;23275;48.914;12.566;2023-05-20T11:09:37;30.30;67.50
37410;DHT22;23275;48.914;12.566;2023-05-20T11:12:04;30.60;68.80
37410;DHT22;23275;48.914;12.566;2023-05-20T11:14:30;31.00;70.70
37410;DHT22;23275;48.914;12.566;2023-05-20T11:16:59;30.90;67.70
37410;DHT22;23275;48.914;12.566;2023-05-20T11:19:25;30.70;69.10
37410;DHT22;23275;48.914;12.566;2023-05-20T11:21:52;30.40;71.80
37410;DHT22;23275;48.914;12.566;2023-05-20T11:24:29;30.20;75.40
37410;DHT22;23275;48.914;12.566;2023-05-20T11:26:55;29.20;73.50
37410;DHT22;23275;48.914;12.566;2023-05-20T11:29:22;27.70;72.50
37410;DHT22;23275;48.914;12.566;2023-05-20T11:31:51;26.50;76.20
37410;DHT22;23275;48.914;12.566;2023-05-20T11:34:22;26.00;75.70
37410;DHT22;23275;48.914;12.566;2023-05-20T11:36:56;26.00;82.30
37410;DHT22;23275;48.914;12.566;2023-05-20T11:39:21;25.50;75.00
37410;DHT22;23275;48.914;12.566;2023-05-20T11:41:47;25.30;79.20
37410;DHT22;23275;48.914;12.566;2023-05-20T11:44:12;25.30;81.40
37410;DHT22;23275;48.914;12.566;2023-05-20T11:46:42;25.30;81.00
37410;DHT22;23275;48.914;12.566;2023-05-20T11:49:08;24.90;79.00
37410;DHT22;23275;48.914;12.566;2023-05-20T11:51:34;24.70;83.70
37410;DHT22;23275;48.914;12.566;2023-05-20T11:54:07;24.30;80.30
37410;DHT22;23275;48.914;12.566;2023-05-20T11:56:34;23.80;79.50
37410;DHT22;23275;48.914;12.566;2023-05-20T11:59:04;23.50;81.10
37410;DHT22;23275;48.914;12.566;2023-05-20T12:01:35;23.30;86.30
37410;DHT22;23275;48.914;12.566;2023-05-20T12:04:08;23.10;85.90
37410;DHT22;23275;48.914;12.566;2023-05-20T12:06:33;22.90;87.70
37410;DHT22;23275;48.914;12.566;2023-05-20T12:09:01;22.90;90.60
37410;DHT22;23275;48.914;12.566;2023-05-20T12:11:36;22.80;86.50
37410;DHT22;23275;48.914;12.566;2023-05-20T12:14:04;22.80;86.10
37410;DHT22;23275;48.914;12.566;2023-05-20T12:16:32;22.70;86.70
37410;DHT22;23275;48.914;12.566;2023-05-20T12:18:57;22.80;88.10
37410;DHT22;23275;48.914;12.566;2023-05-20T12:21:23;22.90;86.40
37410;DHT22;23275;48.914;12.566;2023-05-20T12:23:48;23.00;86.00
37410;DHT22;23275;48.914;12.566;2023-05-20T12:26:14;22.90;86.70
37410;DHT22;23275;48.914;12.566;2023-05-20T12:28:40;22.80;85.70
37410;DHT22;23275;48.914;12.566;2023-05-20T12:31:05;22.80;88.30
37410;DHT22;23275;48.914;12.566;2023-05-20T12:33:31;22.80;86.50
37410;DHT22;23275;48.914;12.566;2023-05-20T12:35:57;22.90;90.00
37410;DHT22;23275;48.914;12.566;2023-05-20T12:38:23;23.10;86.60
37410;DHT22;23275;48.914;12.566;2023-05-20T12:40:48;23.20;89.60
37410;DHT22;23275;48.914;12.566;2023-05-20T12:43:14;23.30;88.60
37410;DHT22;23275;48.914;12.566;2023-05-20T12:45:39;23.10;85.50
37410;DHT22;23275;48.914;12.566;2023-05-20T12:48:05;23.10;85.40
37410;DHT22;23275;48.914;12.566;2023-05-20T12:50:32;23.10;89.90
37410;DHT22;23275;48.914;12.566;2023-05-20T12:52:58;23.30;89.60
37410;DHT22;23275;48.914;12.566;2023-05-20T12:55:23;23.60;89.20
37410;DHT22;23275;48.914;12.566;2023-05-20T12:57:49;23.60;87.30
37410;DHT22;23275;48.914;12.566;2023-05-20T13:00:15;23.90;89.80
37410;DHT22;23275;48.914;12.566;2023-05-20T13:02:41;24.00;85.90
37410;DHT22;23275;48.914;12.566;2023-05-20T13:05:09;24.10;80.90
37410;DHT22;23275;48.914;12.566;2023-05-20T13:07:34;24.20;79.70
37410;DHT22;23275;48.914;12.566;2023-05-20T13:10:00;24.20;83.60
37410;DHT22;23275;48.914;12.566;2023-05-20T13:12:25;24.20;83.70
37410;DHT22;23275;48.914;12.566;2023-05-20T13:14:51;24.10;87.20
37410;DHT22;23275;48.914;12.566;2023-05-20T13:17:17;24.00;82.00
37410;DHT22;23275;48.914;12.566;2023-05-20T13:19:42;23.80;80.90
37410;DHT22;23275;48.914;12.566;2023-05-20T13:22:10;23.70;87.00
37410;DHT22;23275;48.914;12.566;2023-05-20T13:24:36;23.80;84.70
37410;DHT22;23275;48.914;12.566;2023-05-20T13:27:02;24.00;85.00
37410;DHT22;23275;48.914;12.566;2023-05-20T13:29:29;24.20;90.60
37410;DHT22;23275;48.914;12.566;2023-05-20T13:31:54;24.40;81.40
37410;DHT22;23275;48.914;12.566;2023-05-20T13:34:20;24.40;82.70
37410;DHT22;23275;48.914;12.566;2023-05-20T13:36:46;24.20;85.80
37410;DHT22;23275;48.914;12.566;2023-05-20T13:39:15;24.10;83.50
37410;DHT22;23275;48.914;12.566;2023-05-20T13:41:41;24.10;86.60
37410;DHT22;23275;48.914;12.566;2023-05-20T13:44:06;24.00;85.50
37410;DHT22;23275;48.914;12.566;2023-05-20T13:46:33;24.00;81.90
37410;DHT22;23275;48.914;12.566;2023-05-20T13:48:59;23.90;85.10
37410;DHT22;23275;48.914;12.566;2023-05-20T13:51:25;23.80;89.20
37410;DHT22;23275;48.914;12.566;2023-05-20T13:53:50;23.80;86.40
37410;DHT22;23275;48.914;12.566;2023-05-20T13:56:16;23.90;84.90
37410;DHT22;23275;48.914;12.566;2023-05-20T13:58:41;24.00;83.10
37410;DHT22;23275;48.914;12.566;2023-05-20T14:01:07;24.10;82.10
37410;DHT22;23275;48.914;12.566;2023-05-20T14:03:33;24.00;77.80
37410;DHT22;23275;48.914;12.566;2023-05-20T14:05:59;24.00;86.00
37410;DHT22;23275;48.914;12.566;2023-05-20T14:08:25;24.30;87.70
37410;DHT22;23275;48.914;12.566;2023-05-20T14:10:50;24.60;81.90
37410;DHT22;23275;48.914;12.566;2023-05-20T14:13:23;24.60;78.30
37410;DHT22;23275;48.914;12.566;2023-05-20T14:15:49;24.40;80.80
37410;DHT22;23275;48.914;12.566;2023-05-20T14:18:18;24.30;79.50
37410;DHT22;23275;48.914;12.566;2023-05-20T14:20:44;24.20;80.70
37410;DHT22;23275;48.914;12.566;2023-05-20T14:23:10;24.10;83.00
37410;DHT22;23275;48.914;12.566;2023-05-20T14:25:36;23.80;78.50
37410;DHT22;23275;48.914;12.566;2023-05-20T14:28:02;23.60;77.40
37410;DHT22;23275;48.914;12.566;2023-05-20T14:30:28;23.40;79.60
37410;DHT22;23275;48.914;12.566;2023-05-20T14:32:54;23.20;81.60
37410;DHT22;23275;48.914;12.566;2023-05-20T14:35:20;23.10;85.40
37410;DHT22;23275;48.914;12.566;2023-05-20T14:37:45;23.20;86.40
37410;DHT22;23275;48.914;12.566;2023-05-20T14:40:11;23.20;83.20
37410;DHT22;23275;48.914;12.566;2023-05-20T14:42:37;23.20;82.80
37410;DHT22;23275;48.914;12.566;2023-05-20T14:45:03;23.20;83.90
37410;DHT22;23275;48.914;12.566;2023-05-20T14:47:29;23.30;85.00
37410;DHT22;23275;48.914;12.566;2023-05-20T14:49:55;23.40;80.90
37410;DHT22;23275;48.914;12.566;2023-05-20T14:52:21;23.50;81.40
37410;DHT22;23275;48.914;12.566;2023-05-20T14:54:47;23.60;82.10
37410;DHT22;23275;48.914;12.566;2023-05-20T14:57:12;23.70;84.00
37410;DHT22;23275;48.914;12.566;2023-05-20T14:59:40;23.70;80.10
37410;DHT22;23275;48.914;12.566;2023-05-20T15:02:05;23.60;79.40
37410;DHT22;23275;48.914;12.566;2023-05-20T15:04:31;23.60;80.70
37410;DHT22;23275;48.914;12.566;2023-05-20T15:06:57;23.50;81.30
37410;DHT22;23275;48.914;12.566;2023-05-20T15:09:23;23.50;78.60
37410;DHT22;23275;48.914;12.566;2023-05-20T15:11:49;23.50;83.70
37410;DHT22;23275;48.914;12.566;2023-05-20T15:14:14;23.40;84.40
37410;DHT22;23275;48.914;12.566;2023-05-20T15:16:40;23.20;82.50
37410;DHT22;23275;48.914;12.566;2023-05-20T15:19:06;23.00;88.30
37410;DHT22;23275;48.914;12.566;2023-05-20T15:21:31;23.00;88.60